Time;durP1;ratioP1;P1;durP2;ratioP2;P2;SDS_P1;SDS_P2;PMS_P1;PMS_P2;Temp;Humidity;BMP_temperature;BMP_pressure;BME280_temperature;BME280_humidity;BME280_pressure;Samples;Min_cycle;Max_cycle;Signal;HPM_P1;HPM_P2
2021/11/29 00:01:31;;;;;;;23.25;9.88;;;;;;;;;;5047612;28;20418;-56
2021/11/29 00:03:57;;;;;;;23.17;10.30;;;;;;;;;;5050143;28;20419;-56
2021/11/29 00:06:23;;;;;;;22.27;10.48;;;;;;;;;;5051180;28;20107;-56
2021/11/29 00:08:50;;;;;;;23.85;10.25;;;;;;;;;;5050415;28;20021;-56
2021/11/29 00:11:16;;;;;;;22.00;9.43;;;;;;;;;;5044951;28;20056;-53
2021/11/29 00:13:42;;;;;;;22.52;10.52;;;;;;;;;;5059315;28;20507;-52
2021/11/29 00:16:08;;;;;;;22.65;10.73;;;;;;;;;;5043837;28;20159;-53
2021/11/29 00:18:34;;;;;;;22.65;10.48;;;;;;;;;;5046312;28;20068;-56
2021/11/29 00:21:00;;;;;;;23.50;9.82;;;;;;;;;;5055185;28;20029;-55
2021/11/29 00:23:26;;;;;;;25.55;10.63;;;;;;;;;;5045582;28;20040;-54
2021/11/29 00:25:52;;;;;;;27.58;11.20;;;;;;;;;;5049167;28;20040;-56
2021/11/29 00:28:18;;;;;;;24.70;10.52;;;;;;;;;;5042728;28;20116;-52
2021/11/29 00:30:46;;;;;;;28.45;10.82;;;;;;;;;;5042291;28;20106;-54
2021/11/29 00:33:12;;;;;;;26.60;11.57;;;;;;;;;;5051480;28;20558;-54
2021/11/29 00:35:39;;;;;;;21.98;11.30;;;;;;;;;;5053697;28;20041;-55
2021/11/29 00:38:05;;;;;;;21.75;11.10;;;;;;;;;;5053648;28;20017;-56
2021/11/29 00:40:32;;;;;;;24.73;11.40;;;;;;;;;;5054147;28;20109;-52
2021/11/29 00:42:59;;;;;;;24.50;11.20;;;;;;;;;;5048954;28;20061;-55
2021/11/29 00:45:25;;;;;;;28.00;11.65;;;;;;;;;;5053350;28;20029;-54
2021/11/29 00:47:51;;;;;;;26.17;10.52;;;;;;;;;;5057200;28;20043;-52
2021/11/29 00:50:19;;;;;;;28.10;11.93;;;;;;;;;;5054885;28;20029;-52
2021/11/29 00:52:45;;;;;;;25.10;10.35;;;;;;;;;;5055802;28;20052;-53
2021/11/29 00:55:11;;;;;;;26.35;11.85;;;;;;;;;;5057268;28;20064;-55
2021/11/29 00:57:38;;;;;;;24.50;10.85;;;;;;;;;;5056403;28;20031;-56
2021/11/29 01:00:05;;;;;;;24.45;10.43;;;;;;;;;;5053628;28;20017;-56
2021/11/29 01:02:31;;;;;;;26.70;12.32;;;;;;;;;;5059399;28;20034;-56
2021/11/29 01:04:57;;;;;;;25.70;11.15;;;;;;;;;;5052835;28;20033;-55
2021/11/29 01:07:23;;;;;;;31.63;12.65;;;;;;;;;;5054436;28;20037;-56
2021/11/29 01:09:49;;;;;;;32.65;12.27;;;;;;;;;;5052979;28;20029;-55
2021/11/29 01:12:15;;;;;;;29.33;12.60;;;;;;;;;;5057257;28;20032;-55
2021/11/29 01:14:41;;;;;;;28.05;12.38;;;;;;;;;;5051543;28;20056;-54
2021/11/29 01:17:09;;;;;;;27.23;12.55;;;;;;;;;;5054023;28;20151;-56
2021/11/29 01:19:35;;;;;;;29.27;12.65;;;;;;;;;;5043437;28;20037;-53
2021/11/29 01:22:01;;;;;;;31.13;13.88;;;;;;;;;;5049233;28;20037;-55
2021/11/29 01:24:27;;;;;;;27.80;12.20;;;;;;;;;;5053209;28;20029;-55
2021/11/29 01:26:53;;;;;;;31.52;12.73;;;;;;;;;;5050423;28;20056;-55
2021/11/29 01:29:19;;;;;;;30.60;12.80;;;;;;;;;;5052016;28;20029;-54
2021/11/29 01:31:45;;;;;;;32.70;14.38;;;;;;;;;;5052272;28;20082;-53
2021/11/29 01:34:12;;;;;;;34.75;13.70;;;;;;;;;;5054741;28;20036;-53
2021/11/29 01:36:38;;;;;;;30.00;12.40;;;;;;;;;;5049913;28;20056;-54
2021/11/29 01:39:04;;;;;;;31.35;12.07;;;;;;;;;;5044562;28;20025;-52
2021/11/29 01:41:30;;;;;;;35.72;13.85;;;;;;;;;;5048476;28;20117;-52
2021/11/29 01:43:56;;;;;;;34.55;12.75;;;;;;;;;;5054603;28;20560;-55
2021/11/29 01:46:22;;;;;;;30.90;13.48;;;;;;;;;;5047338;28;20035;-54
2021/11/29 01:48:50;;;;;;;33.70;13.27;;;;;;;;;;5055220;28;20025;-54
2021/11/29 01:51:16;;;;;;;35.88;13.68;;;;;;;;;;5054629;28;20029;-55
2021/11/29 01:53:42;;;;;;;34.22;13.38;;;;;;;;;;5053972;28;20036;-51
2021/11/29 01:56:08;;;;;;;32.60;12.90;;;;;;;;;;5057666;28;20475;-56
2021/11/29 01:58:35;;;;;;;35.53;13.40;;;;;;;;;;5055380;28;20104;-56
2021/11/29 02:01:02;;;;;;;33.63;13.80;;;;;;;;;;5053281;28;20123;-56
2021/11/29 02:03:29;;;;;;;35.13;14.05;;;;;;;;;;5052765;28;20035;-56
2021/11/29 02:05:56;;;;;;;37.35;14.90;;;;;;;;;;5056709;28;20485;-53
2021/11/29 02:08:22;;;;;;;38.72;15.23;;;;;;;;;;5053640;28;20024;-55
2021/11/29 02:10:48;;;;;;;38.28;14.93;;;;;;;;;;5060278;28;20044;-55
2021/11/29 02:13:14;;;;;;;41.40;15.23;;;;;;;;;;5056648;28;20068;-54
2021/11/29 02:15:40;;;;;;;36.85;15.57;;;;;;;;;;5054635;28;20028;-56
2021/11/29 02:18:07;;;;;;;37.30;14.77;;;;;;;;;;5053443;28;20028;-55
2021/11/29 02:20:33;;;;;;;42.17;15.40;;;;;;;;;;5044084;28;20530;-54
2021/11/29 02:23:00;;;;;;;41.65;15.75;;;;;;;;;;5062222;28;20153;-56
2021/11/29 02:25:26;;;;;;;42.30;15.68;;;;;;;;;;5054398;28;20029;-54
2021/11/29 02:27:53;;;;;;;37.22;13.82;;;;;;;;;;5060660;28;20111;-54
2021/11/29 02:30:21;;;;;;;42.42;15.63;;;;;;;;;;5056504;28;20104;-54
2021/11/29 02:32:47;;;;;;;40.88;14.88;;;;;;;;;;5039723;28;20422;-53
2021/11/29 02:35:14;;;;;;;40.08;15.82;;;;;;;;;;5048041;28;20179;-53
2021/11/29 02:37:40;;;;;;;37.00;15.30;;;;;;;;;;5051254;28;20461;-55
2021/11/29 02:40:07;;;;;;;41.03;16.13;;;;;;;;;;5052004;28;20025;-54
2021/11/29 02:42:33;;;;;;;38.90;15.55;;;;;;;;;;5049735;28;20034;-50
2021/11/29 02:44:59;;;;;;;36.80;15.10;;;;;;;;;;5051045;28;20040;-51
2021/11/29 02:47:25;;;;;;;46.80;15.55;;;;;;;;;;5056232;28;20048;-53
2021/11/29 02:49:51;;;;;;;40.20;15.63;;;;;;;;;;5053910;28;20443;-53
2021/11/29 02:52:18;;;;;;;42.63;16.40;;;;;;;;;;5050659;28;20025;-53
2021/11/29 02:54:44;;;;;;;37.55;14.60;;;;;;;;;;5057284;28;20033;-50
2021/11/29 02:57:12;;;;;;;47.33;16.30;;;;;;;;;;5055990;28;20028;-56
2021/11/29 02:59:39;;;;;;;32.30;13.13;;;;;;;;;;5048795;28;20476;-56
2021/11/29 03:02:06;;;;;;;40.25;15.75;;;;;;;;;;5053033;28;20502;-55
2021/11/29 03:04:33;;;;;;;39.30;14.55;;;;;;;;;;5055514;28;20081;-56
2021/11/29 03:06:59;;;;;;;43.65;15.73;;;;;;;;;;5053917;28;20380;-56
2021/11/29 03:09:25;;;;;;;41.88;16.20;;;;;;;;;;5051094;28;20036;-56
2021/11/29 03:11:51;;;;;;;37.47;15.15;;;;;;;;;;5051948;28;20107;-52
2021/11/29 03:14:18;;;;;;;39.70;14.82;;;;;;;;;;5060209;28;20027;-56
2021/11/29 03:16:45;;;;;;;38.35;14.90;;;;;;;;;;5053470;28;20086;-52
2021/11/29 03:19:11;;;;;;;44.85;16.08;;;;;;;;;;5061134;28;20029;-56
2021/11/29 03:21:38;;;;;;;38.90;14.73;;;;;;;;;;5054727;28;20025;-56
2021/11/29 03:24:05;;;;;;;40.63;15.40;;;;;;;;;;5057322;28;20460;-54
2021/11/29 03:26:31;;;;;;;41.58;15.65;;;;;;;;;;5066363;28;20600;-53
2021/11/29 03:28:59;;;;;;;38.10;14.52;;;;;;;;;;5039540;28;20488;-54
2021/11/29 03:31:27;;;;;;;39.10;14.95;;;;;;;;;;5054324;28;20032;-51
2021/11/29 03:33:57;;;;;;;38.53;15.43;;;;;;;;;;5037297;28;20022;-54
2021/11/29 03:36:23;;;;;;;44.83;14.85;;;;;;;;;;5044154;28;20045;-52
2021/11/29 03:38:49;;;;;;;36.20;14.82;;;;;;;;;;5050898;28;20029;-54
2021/11/29 03:41:15;;;;;;;38.25;15.25;;;;;;;;;;5048790;28;20424;-52
2021/11/29 03:43:41;;;;;;;39.25;15.15;;;;;;;;;;5049800;28;20060;-51
2021/11/29 03:46:08;;;;;;;40.25;15.35;;;;;;;;;;5045607;28;20029;-53
2021/11/29 03:48:34;;;;;;;38.05;15.52;;;;;;;;;;5054641;28;20056;-53
2021/11/29 03:51:01;;;;;;;40.42;14.95;;;;;;;;;;5056732;28;20037;-53
2021/11/29 03:53:27;;;;;;;39.13;16.00;;;;;;;;;;5053009;28;20531;-51
2021/11/29 03:55:53;;;;;;;42.05;14.77;;;;;;;;;;5057470;28;20022;-55
2021/11/29 03:58:19;;;;;;;38.45;14.60;;;;;;;;;;5057171;28;20724;-50
2021/11/29 04:00:45;;;;;;;34.88;14.32;;;;;;;;;;5054555;28;20384;-54
2021/11/29 04:03:12;;;;;;;38.45;15.88;;;;;;;;;;5051269;28;20087;-56
2021/11/29 04:05:38;;;;;;;34.67;14.00;;;;;;;;;;5054262;28;20104;-54
2021/11/29 04:08:04;;;;;;;38.42;15.50;;;;;;;;;;5050336;28;20032;-56
2021/11/29 04:10:30;;;;;;;40.35;15.38;;;;;;;;;;5049964;28;20104;-56
2021/11/29 04:12:56;;;;;;;38.67;15.38;;;;;;;;;;5048718;28;20045;-56
2021/11/29 04:15:22;;;;;;;39.03;14.13;;;;;;;;;;5049483;28;20029;-53
2021/11/29 04:17:49;;;;;;;37.72;15.27;;;;;;;;;;5047792;28;20060;-56
2021/11/29 04:20:16;;;;;;;35.33;15.20;;;;;;;;;;5043912;28;20029;-56
2021/11/29 04:22:45;;;;;;;38.33;15.10;;;;;;;;;;5047219;28;20120;-55
2021/11/29 04:25:13;;;;;;;35.35;14.90;;;;;;;;;;5047153;28;20037;-55
2021/11/29 04:27:41;;;;;;;38.42;14.98;;;;;;;;;;5048461;28;20060;-56
2021/11/29 04:30:12;;;;;;;35.50;14.10;;;;;;;;;;5047542;28;20060;-55
2021/11/29 04:32:39;;;;;;;37.55;14.77;;;;;;;;;;5050896;28;20041;-52
2021/11/29 04:35:05;;;;;;;43.28;14.82;;;;;;;;;;5047896;28;20041;-54
2021/11/29 04:37:31;;;;;;;33.92;13.48;;;;;;;;;;5044804;28;20029;-55
2021/11/29 04:39:57;;;;;;;38.88;15.40;;;;;;;;;;5041154;28;20036;-54
2021/11/29 04:42:23;;;;;;;37.97;14.88;;;;;;;;;;5043434;28;20050;-54
2021/11/29 04:44:49;;;;;;;34.90;14.60;;;;;;;;;;5051202;28;20112;-56
2021/11/29 04:47:15;;;;;;;39.63;16.45;;;;;;;;;;5048329;28;20171;-55
2021/11/29 04:49:41;;;;;;;40.42;14.80;;;;;;;;;;5048861;28;20037;-53
2021/11/29 04:52:07;;;;;;;42.50;15.30;;;;;;;;;;5048821;28;20028;-55
2021/11/29 04:54:33;;;;;;;37.33;14.20;;;;;;;;;;5054234;28;20124;-53
2021/11/29 04:56:59;;;;;;;35.95;15.32;;;;;;;;;;5052671;28;20033;-56
2021/11/29 04:59:25;;;;;;;39.90;14.95;;;;;;;;;;5053737;28;20077;-52
2021/11/29 05:01:51;;;;;;;37.22;15.07;;;;;;;;;;5051639;28;20111;-55
2021/11/29 05:04:17;;;;;;;42.35;15.77;;;;;;;;;;5053737;28;20033;-56
2021/11/29 05:06:43;;;;;;;36.97;15.80;;;;;;;;;;5041018;28;20638;-55
2021/11/29 05:09:11;;;;;;;38.30;14.70;;;;;;;;;;5051827;28;20036;-55
2021/11/29 05:11:37;;;;;;;40.38;15.40;;;;;;;;;;5054585;28;20029;-56
2021/11/29 05:14:03;;;;;;;38.17;15.02;;;;;;;;;;5055182;28;20112;-56
2021/11/29 05:16:29;;;;;;;41.83;15.98;;;;;;;;;;5055949;28;20095;-56
2021/11/29 05:18:55;;;;;;;36.70;15.07;;;;;;;;;;5049023;28;20608;-55
2021/11/29 05:21:21;;;;;;;36.58;15.18;;;;;;;;;;5049512;28;20100;-56
2021/11/29 05:23:48;;;;;;;41.03;16.35;;;;;;;;;;5046913;28;20052;-56
2021/11/29 05:26:14;;;;;;;37.03;16.60;;;;;;;;;;5056324;28;20095;-52
2021/11/29 05:28:40;;;;;;;37.83;15.23;;;;;;;;;;5055714;28;20035;-56
2021/11/29 05:31:06;;;;;;;35.78;16.42;;;;;;;;;;5050532;28;20025;-56
2021/11/29 05:33:32;;;;;;;39.97;14.98;;;;;;;;;;5049668;28;20029;-53
2021/11/29 05:35:58;;;;;;;38.28;15.43;;;;;;;;;;5044406;28;20049;-53
2021/11/29 05:38:24;;;;;;;44.80;18.08;;;;;;;;;;5053938;28;20049;-52
2021/11/29 05:40:50;;;;;;;36.88;16.15;;;;;;;;;;5054553;28;20038;-55
2021/11/29 05:43:16;;;;;;;35.40;15.55;;;;;;;;;;5051437;28;20108;-53
2021/11/29 05:45:42;;;;;;;39.60;15.18;;;;;;;;;;5049462;28;20094;-54
2021/11/29 05:48:08;;;;;;;36.70;15.05;;;;;;;;;;5042588;28;20037;-54
2021/11/29 05:50:34;;;;;;;42.25;15.95;;;;;;;;;;5044577;28;20029;-53
2021/11/29 05:53:00;;;;;;;40.75;15.70;;;;;;;;;;5040710;28;20025;-56
2021/11/29 05:55:26;;;;;;;36.20;15.07;;;;;;;;;;5049987;28;20357;-56
2021/11/29 05:57:52;;;;;;;33.30;14.60;;;;;;;;;;5051061;28;20041;-55
2021/11/29 06:00:20;;;;;;;42.00;15.98;;;;;;;;;;5052064;28;20435;-56
2021/11/29 06:02:46;;;;;;;34.50;13.60;;;;;;;;;;5048044;28;20393;-56
2021/11/29 06:05:12;;;;;;;36.45;14.98;;;;;;;;;;5042534;28;20021;-56
2021/11/29 06:07:38;;;;;;;41.95;15.18;;;;;;;;;;5045009;28;20029;-56
2021/11/29 06:10:05;;;;;;;34.53;13.57;;;;;;;;;;5046606;28;20065;-55
2021/11/29 06:12:32;;;;;;;35.53;14.65;;;;;;;;;;5041080;28;20068;-54
2021/11/29 06:14:57;;;;;;;33.20;14.00;;;;;;;;;;5048495;28;20033;-56
2021/11/29 06:17:24;;;;;;;38.65;15.00;;;;;;;;;;5045400;28;20648;-54
2021/11/29 06:19:50;;;;;;;32.35;14.13;;;;;;;;;;5047880;28;20031;-55
2021/11/29 06:22:16;;;;;;;39.25;15.82;;;;;;;;;;5044877;28;20040;-54
2021/11/29 06:24:42;;;;;;;36.85;14.80;;;;;;;;;;5047251;28;20057;-54
2021/11/29 06:27:08;;;;;;;37.22;14.27;;;;;;;;;;5051075;28;20108;-55
2021/11/29 06:29:34;;;;;;;30.83;13.90;;;;;;;;;;5050281;28;20416;-56
2021/11/29 06:32:00;;;;;;;33.28;14.05;;;;;;;;;;5050485;28;20036;-54
2021/11/29 06:34:26;;;;;;;34.83;13.70;;;;;;;;;;5047092;28;20025;-54
2021/11/29 06:36:52;;;;;;;35.17;13.43;;;;;;;;;;5048415;28;20037;-54
2021/11/29 06:39:20;;;;;;;33.45;13.95;;;;;;;;;;5046909;28;21778;-53
2021/11/29 06:41:47;;;;;;;30.77;12.82;;;;;;;;;;5048632;28;20043;-56
2021/11/29 06:44:13;;;;;;;32.25;13.82;;;;;;;;;;5045909;28;20029;-56
2021/11/29 06:46:39;;;;;;;35.63;13.30;;;;;;;;;;5051389;28;20029;-56
2021/11/29 06:49:05;;;;;;;30.95;14.30;;;;;;;;;;5043316;28;20044;-52
2021/11/29 06:51:33;;;;;;;31.90;13.98;;;;;;;;;;5042982;28;20061;-56
2021/11/29 06:53:59;;;;;;;32.88;13.90;;;;;;;;;;5049726;28;20024;-54
2021/11/29 06:56:25;;;;;;;32.75;13.98;;;;;;;;;;5047733;28;20037;-53
2021/11/29 06:58:51;;;;;;;30.50;12.75;;;;;;;;;;5049551;28;20086;-54
2021/11/29 07:01:18;;;;;;;26.90;12.48;;;;;;;;;;5044265;28;20092;-54
2021/11/29 07:03:45;;;;;;;34.10;12.82;;;;;;;;;;5065431;28;20043;-56
2021/11/29 07:06:11;;;;;;;33.85;13.32;;;;;;;;;;5050099;28;20068;-56
2021/11/29 07:08:37;;;;;;;30.73;12.43;;;;;;;;;;5041818;28;20068;-55
2021/11/29 07:11:03;;;;;;;34.28;13.60;;;;;;;;;;5046973;28;20350;-56
2021/11/29 07:13:29;;;;;;;28.33;12.80;;;;;;;;;;5056347;28;20107;-56
2021/11/29 07:15:57;;;;;;;33.70;14.02;;;;;;;;;;5051420;28;20061;-54
2021/11/29 07:18:23;;;;;;;32.20;13.52;;;;;;;;;;5049159;28;20029;-55
2021/11/29 07:20:49;;;;;;;36.75;14.35;;;;;;;;;;5051952;28;20033;-56
2021/11/29 07:23:16;;;;;;;37.95;14.98;;;;;;;;;;5056732;28;20112;-56
2021/11/29 07:25:42;;;;;;;28.85;12.18;;;;;;;;;;5050952;28;20033;-55
2021/11/29 07:28:08;;;;;;;36.08;14.13;;;;;;;;;;5043756;28;20051;-53
2021/11/29 07:30:34;;;;;;;35.25;14.18;;;;;;;;;;5055859;28;20104;-52
2021/11/29 07:33:00;;;;;;;30.55;13.23;;;;;;;;;;5043798;28;20044;-53
2021/11/29 07:35:27;;;;;;;34.08;14.50;;;;;;;;;;5051149;28;20036;-55
2021/11/29 07:37:54;;;;;;;33.53;13.93;;;;;;;;;;5050065;28;20104;-56
2021/11/29 07:40:20;;;;;;;31.13;13.85;;;;;;;;;;5052582;28;20143;-54
2021/11/29 07:42:46;;;;;;;36.33;15.23;;;;;;;;;;5053811;28;20033;-55
2021/11/29 07:45:12;;;;;;;27.33;13.07;;;;;;;;;;5049844;28;20029;-55
2021/11/29 07:47:43;;;;;;;36.10;14.18;;;;;;;;;;5045275;28;20091;-56
2021/11/29 07:50:14;;;;;;;39.28;14.70;;;;;;;;;;5050294;28;20039;-56
2021/11/29 07:52:40;;;;;;;27.40;12.57;;;;;;;;;;5046976;28;20032;-53
2021/11/29 07:55:09;;;;;;;32.58;13.88;;;;;;;;;;5052699;28;20159;-55
2021/11/29 07:57:35;;;;;;;35.83;15.07;;;;;;;;;;5046881;28;20034;-56
2021/11/29 08:00:05;;;;;;;29.05;12.20;;;;;;;;;;5052903;28;20111;-54
2021/11/29 08:02:31;;;;;;;36.47;14.20;;;;;;;;;;5050757;28;20163;-53
2021/11/29 08:04:57;;;;;;;32.70;13.48;;;;;;;;;;5038376;28;20037;-52
2021/11/29 08:07:23;;;;;;;36.67;14.88;;;;;;;;;;5050515;28;20469;-56
2021/11/29 08:09:49;;;;;;;40.08;13.48;;;;;;;;;;5038855;28;20032;-56
2021/11/29 08:12:15;;;;;;;36.58;15.10;;;;;;;;;;5050103;28;20484;-56
2021/11/29 08:14:41;;;;;;;35.58;13.63;;;;;;;;;;5051488;28;20013;-56
2021/11/29 08:17:07;;;;;;;36.63;15.30;;;;;;;;;;5049157;28;20048;-56
2021/11/29 08:19:33;;;;;;;34.85;14.48;;;;;;;;;;5045888;28;20025;-55
2021/11/29 08:21:59;;;;;;;31.73;14.90;;;;;;;;;;5050907;28;20571;-55
2021/11/29 08:24:25;;;;;;;34.85;14.57;;;;;;;;;;5050642;28;20435;-55
2021/11/29 08:26:52;;;;;;;34.08;14.30;;;;;;;;;;5048086;28;20112;-55
2021/11/29 08:29:18;;;;;;;38.78;14.77;;;;;;;;;;5044725;28;20025;-55
2021/11/29 08:31:44;;;;;;;36.30;15.52;;;;;;;;;;5052095;28;20091;-53
2021/11/29 08:34:13;;;;;;;32.45;13.73;;;;;;;;;;5053986;28;20209;-56
2021/11/29 08:36:39;;;;;;;34.70;14.50;;;;;;;;;;5054991;28;20056;-56
2021/11/29 08:39:05;;;;;;;32.95;14.45;;;;;;;;;;5053911;28;20384;-55
2021/11/29 08:41:32;;;;;;;33.15;13.20;;;;;;;;;;5054151;28;20104;-56
2021/11/29 08:43:58;;;;;;;33.85;14.35;;;;;;;;;;5056364;28;20023;-54
2021/11/29 08:46:24;;;;;;;32.55;14.55;;;;;;;;;;5044119;28;20022;-55
2021/11/29 08:48:50;;;;;;;34.40;14.40;;;;;;;;;;5054735;28;20063;-54
2021/11/29 08:51:17;;;;;;;35.53;14.85;;;;;;;;;;5049871;28;20839;-56
2021/11/29 08:53:43;;;;;;;29.90;12.82;;;;;;;;;;5051054;28;20032;-55
2021/11/29 08:56:09;;;;;;;31.88;14.52;;;;;;;;;;5054477;28;20104;-56
2021/11/29 08:58:35;;;;;;;37.50;13.98;;;;;;;;;;5052702;28;20041;-56
2021/11/29 09:01:01;;;;;;;37.25;15.43;;;;;;;;;;5054849;28;20029;-53
2021/11/29 09:03:27;;;;;;;35.95;15.45;;;;;;;;;;5056012;28;20119;-56
2021/11/29 09:05:54;;;;;;;36.72;14.27;;;;;;;;;;5053693;28;20036;-55
2021/11/29 09:08:20;;;;;;;34.50;14.95;;;;;;;;;;5052262;28;20025;-54
2021/11/29 09:10:47;;;;;;;36.88;14.75;;;;;;;;;;5054209;28;20028;-56
2021/11/29 09:13:13;;;;;;;35.42;14.80;;;;;;;;;;5053955;28;20082;-56
2021/11/29 09:15:41;;;;;;;38.80;14.63;;;;;;;;;;5052475;28;20025;-56
2021/11/29 09:18:08;;;;;;;31.98;13.98;;;;;;;;;;5048310;28;20032;-56
2021/11/29 09:20:34;;;;;;;35.78;14.25;;;;;;;;;;5053724;28;20521;-56
2021/11/29 09:23:02;;;;;;;32.55;13.68;;;;;;;;;;5042540;28;20111;-56
2021/11/29 09:25:28;;;;;;;29.95;13.20;;;;;;;;;;5048100;28;20544;-56
2021/11/29 09:27:56;;;;;;;37.90;13.15;;;;;;;;;;5053346;28;20103;-56
2021/11/29 09:30:22;;;;;;;30.75;13.57;;;;;;;;;;5054085;28;20041;-56
2021/11/29 09:32:48;;;;;;;30.67;13.15;;;;;;;;;;5052145;28;20082;-55
2021/11/29 09:35:15;;;;;;;27.65;12.95;;;;;;;;;;5052946;28;20120;-53
2021/11/29 09:37:42;;;;;;;35.13;13.48;;;;;;;;;;5052678;28;20032;-54
2021/11/29 09:40:10;;;;;;;32.70;13.02;;;;;;;;;;5053531;28;20032;-53
2021/11/29 09:42:37;;;;;;;31.30;12.80;;;;;;;;;;5053506;28;20108;-55
2021/11/29 09:45:04;;;;;;;28.48;12.88;;;;;;;;;;5050960;28;20025;-54
2021/11/29 09:47:30;;;;;;;25.27;11.57;;;;;;;;;;5051565;28;20029;-55
2021/11/29 09:49:57;;;;;;;26.42;11.77;;;;;;;;;;5042222;28;20040;-51
2021/11/29 09:52:24;;;;;;;30.02;12.93;;;;;;;;;;5044695;28;20026;-54
2021/11/29 09:54:50;;;;;;;32.72;12.18;;;;;;;;;;5045011;28;20499;-54
2021/11/29 09:57:16;;;;;;;31.42;13.43;;;;;;;;;;5047838;28;20055;-52
2021/11/29 09:59:42;;;;;;;29.05;13.20;;;;;;;;;;5052211;28;20029;-56
2021/11/29 10:02:12;;;;;;;34.00;12.10;;;;;;;;;;5048588;28;20546;-54
2021/11/29 10:04:39;;;;;;;33.75;12.75;;;;;;;;;;5049393;28;20044;-56
2021/11/29 10:07:05;;;;;;;34.88;13.55;;;;;;;;;;5048789;28;20037;-56
2021/11/29 10:09:41;;;;;;;29.52;11.63;;;;;;;;;;5049586;28;20099;-56
2021/11/29 10:12:10;;;;;;;28.73;12.55;;;;;;;;;;5052214;28;20120;-56
2021/11/29 10:14:36;;;;;;;31.52;12.73;;;;;;;;;;5052483;28;20111;-55
2021/11/29 10:17:02;;;;;;;28.50;13.20;;;;;;;;;;5049427;28;20025;-55
2021/11/29 10:19:28;;;;;;;31.38;13.18;;;;;;;;;;5054470;28;20373;-56
2021/11/29 10:22:10;;;;;;;33.33;12.82;;;;;;;;;;5047907;28;20099;-56
2021/11/29 10:24:36;;;;;;;29.48;12.50;;;;;;;;;;5055731;28;20111;-56
2021/11/29 10:27:02;;;;;;;29.13;12.90;;;;;;;;;;5052272;28;20025;-56
2021/11/29 10:29:28;;;;;;;31.10;12.60;;;;;;;;;;5056804;28;20060;-57
2021/11/29 10:31:57;;;;;;;26.65;12.43;;;;;;;;;;5047492;28;20033;-55
2021/11/29 10:34:28;;;;;;;33.88;12.55;;;;;;;;;;5048133;28;20049;-57
2021/11/29 10:37:00;;;;;;;29.73;12.50;;;;;;;;;;5048404;28;20042;-56
2021/11/29 10:39:30;;;;;;;30.13;12.50;;;;;;;;;;5047228;28;20025;-56
2021/11/29 10:42:00;;;;;;;29.90;12.52;;;;;;;;;;5048568;28;20017;-57
2021/11/29 10:44:28;;;;;;;27.90;11.88;;;;;;;;;;5047304;28;20111;-56
2021/11/29 10:46:57;;;;;;;26.90;12.13;;;;;;;;;;5058520;28;20039;-55
2021/11/29 10:49:25;;;;;;;31.85;12.60;;;;;;;;;;5061142;28;20394;-56
2021/11/29 10:51:52;;;;;;;27.73;11.27;;;;;;;;;;5051052;28;20025;-57
2021/11/29 10:54:19;;;;;;;30.20;12.90;;;;;;;;;;5044673;28;20040;-57
2021/11/29 10:56:46;;;;;;;28.48;12.40;;;;;;;;;;5059861;28;20028;-54
2021/11/29 10:59:16;;;;;;;30.05;12.00;;;;;;;;;;5048362;28;20052;-56
2021/11/29 11:01:47;;;;;;;30.73;12.30;;;;;;;;;;5045254;28;20552;-57
2021/11/29 11:04:18;;;;;;;26.98;11.35;;;;;;;;;;5050909;28;20021;-54
2021/11/29 11:06:46;;;;;;;26.02;10.57;;;;;;;;;;5045177;28;20029;-57
2021/11/29 11:09:13;;;;;;;28.80;10.48;;;;;;;;;;5047769;28;20025;-56
2021/11/29 11:11:50;;;;;;;28.63;11.00;;;;;;;;;;5048845;28;20115;-59
2021/11/29 11:14:21;;;;;;;25.67;10.32;;;;;;;;;;5046572;28;20462;-57
2021/11/29 11:16:49;;;;;;;23.17;10.10;;;;;;;;;;5044858;28;20021;-55
2021/11/29 11:19:33;;;;;;;22.92;10.38;;;;;;;;;;5044531;28;20033;-55
2021/11/29 11:22:12;;;;;;;23.30;9.80;;;;;;;;;;5053776;28;20047;-57
2021/11/29 11:24:39;;;;;;;19.30;8.88;;;;;;;;;;5047597;28;20033;-57
2021/11/29 11:27:06;;;;;;;20.75;8.82;;;;;;;;;;5052567;28;20456;-56
2021/11/29 11:29:35;;;;;;;22.92;8.63;;;;;;;;;;5048321;28;20079;-57
2021/11/29 11:32:08;;;;;;;23.75;10.60;;;;;;;;;;5037235;28;20037;-58
2021/11/29 11:34:35;;;;;;;29.00;11.00;;;;;;;;;;5035535;28;20018;-57
2021/11/29 11:37:01;;;;;;;19.75;8.25;;;;;;;;;;5048060;28;20162;-57
2021/11/29 11:39:27;;;;;;;25.00;8.77;;;;;;;;;;5051135;28;20076;-57
2021/11/29 11:41:54;;;;;;;24.65;9.77;;;;;;;;;;5051397;28;20036;-57
2021/11/29 11:44:20;;;;;;;21.65;8.40;;;;;;;;;;5039480;28;20054;-55
2021/11/29 11:46:47;;;;;;;19.88;8.43;;;;;;;;;;5046238;28;20036;-56
2021/11/29 11:49:13;;;;;;;22.27;8.95;;;;;;;;;;5048752;28;20496;-56
2021/11/29 11:51:40;;;;;;;17.92;7.65;;;;;;;;;;5050347;28;20127;-56
2021/11/29 11:54:06;;;;;;;20.10;8.43;;;;;;;;;;5049525;28;20025;-57
2021/11/29 11:56:32;;;;;;;23.75;9.57;;;;;;;;;;5050128;28;20100;-58
2021/11/29 11:59:05;;;;;;;16.33;7.40;;;;;;;;;;5040932;28;20017;-57
2021/11/29 12:01:33;;;;;;;21.13;8.65;;;;;;;;;;5047835;28;20037;-56
2021/11/29 12:03:59;;;;;;;18.13;7.47;;;;;;;;;;5049465;28;20029;-55
2021/11/29 12:06:35;;;;;;;15.05;7.15;;;;;;;;;;5055862;28;20457;-58
2021/11/29 12:09:02;;;;;;;17.10;6.95;;;;;;;;;;5045460;28;20090;-56
2021/11/29 12:11:32;;;;;;;18.10;8.10;;;;;;;;;;5056496;28;20036;-55
2021/11/29 12:14:19;;;;;;;14.77;6.75;;;;;;;;;;5051797;28;20358;-57
2021/11/29 12:16:47;;;;;;;17.75;7.03;;;;;;;;;;5047455;28;20021;-58
2021/11/29 12:19:22;;;;;;;15.88;7.10;;;;;;;;;;5054788;28;20110;-58
2021/11/29 12:21:48;;;;;;;16.45;6.88;;;;;;;;;;5059461;28;20036;-56
2021/11/29 12:24:17;;;;;;;10.65;4.85;;;;;;;;;;5053728;28;20110;-58
2021/11/29 12:26:46;;;;;;;12.75;5.65;;;;;;;;;;5048669;28;20140;-57
2021/11/29 12:29:24;;;;;;;12.38;4.70;;;;;;;;;;5054753;28;20029;-58
2021/11/29 12:31:53;;;;;;;10.50;4.82;;;;;;;;;;5042479;28;20079;-58
2021/11/29 12:34:38;;;;;;;10.57;4.53;;;;;;;;;;5047971;28;20101;-58
2021/11/29 12:37:04;;;;;;;9.35;4.28;;;;;;;;;;5051748;28;20037;-58
2021/11/29 12:39:42;;;;;;;8.60;4.15;;;;;;;;;;5047757;28;20060;-58
2021/11/29 12:42:22;;;;;;;10.18;4.50;;;;;;;;;;5049744;28;20060;-56
2021/11/29 12:44:52;;;;;;;11.85;4.97;;;;;;;;;;5048400;28;20025;-58
2021/11/29 12:47:19;;;;;;;7.95;3.83;;;;;;;;;;5063635;28;20032;-56
2021/11/29 12:49:45;;;;;;;9.07;4.20;;;;;;;;;;5048953;28;20025;-56
2021/11/29 12:52:30;;;;;;;8.65;4.05;;;;;;;;;;5060524;28;20035;-55
2021/11/29 12:54:57;;;;;;;10.02;4.07;;;;;;;;;;5050927;28;20025;-57
2021/11/29 12:57:24;;;;;;;10.95;4.10;;;;;;;;;;5058089;28;20025;-56
2021/11/29 12:59:51;;;;;;;8.50;4.13;;;;;;;;;;5046142;28;20782;-58
2021/11/29 13:02:35;;;;;;;10.52;4.38;;;;;;;;;;5049389;28;20017;-58
2021/11/29 13:05:01;;;;;;;7.25;3.58;;;;;;;;;;5053008;28;20060;-58
2021/11/29 13:07:58;;;;;;;7.50;3.90;;;;;;;;;;5053260;28;20378;-57
2021/11/29 13:10:43;;;;;;;14.60;5.35;;;;;;;;;;5050787;28;20108;-55
2021/11/29 13:13:28;;;;;;;8.15;3.78;;;;;;;;;;5049169;28;20066;-58
2021/11/29 13:15:59;;;;;;;9.18;4.35;;;;;;;;;;5052029;28;20480;-56
2021/11/29 13:18:50;;;;;;;7.35;3.40;;;;;;;;;;5053857;28;20028;-56
2021/11/29 13:21:20;;;;;;;8.63;3.95;;;;;;;;;;5050024;28;20075;-56
2021/11/29 13:23:59;;;;;;;7.47;3.60;;;;;;;;;;5051037;28;20045;-55
2021/11/29 13:26:26;;;;;;;9.02;3.90;;;;;;;;;;5053868;28;20037;-54
2021/11/29 13:28:53;;;;;;;8.38;4.10;;;;;;;;;;5045779;28;20025;-57
2021/11/29 13:31:23;;;;;;;12.55;5.65;;;;;;;;;;5053150;28;20028;-56
2021/11/29 13:33:49;;;;;;;7.15;3.47;;;;;;;;;;5045765;28;20548;-56
2021/11/29 13:36:15;;;;;;;9.23;4.45;;;;;;;;;;5047445;28;20110;-57
2021/11/29 13:38:41;;;;;;;7.15;3.95;;;;;;;;;;5042788;28;20119;-57
2021/11/29 13:41:15;;;;;;;7.93;3.45;;;;;;;;;;5045048;28;20084;-53
2021/11/29 13:43:42;;;;;;;8.80;3.80;;;;;;;;;;5051567;28;20025;-56
2021/11/29 13:46:12;;;;;;;7.93;4.03;;;;;;;;;;5046436;28;20064;-56
2021/11/29 13:48:39;;;;;;;7.72;3.55;;;;;;;;;;5044185;28;20680;-55
2021/11/29 13:51:05;;;;;;;10.15;4.30;;;;;;;;;;5043122;28;20025;-58
2021/11/29 13:53:39;;;;;;;8.57;3.75;;;;;;;;;;5048191;28;20120;-55
2021/11/29 13:56:07;;;;;;;8.30;3.80;;;;;;;;;;5046443;28;20052;-57
2021/11/29 13:58:34;;;;;;;7.97;4.10;;;;;;;;;;5048643;28;20112;-57
2021/11/29 14:01:05;;;;;;;8.45;4.13;;;;;;;;;;5043270;28;20056;-58
2021/11/29 14:03:36;;;;;;;8.73;4.15;;;;;;;;;;5047756;28;20025;-57
2021/11/29 14:06:07;;;;;;;8.00;3.90;;;;;;;;;;5044283;28;20037;-57
2021/11/29 14:08:39;;;;;;;8.18;3.85;;;;;;;;;;5045381;28;20051;-58
2021/11/29 14:11:07;;;;;;;8.10;3.88;;;;;;;;;;5042102;28;20029;-58
2021/11/29 14:13:35;;;;;;;9.52;4.43;;;;;;;;;;5048439;28;20021;-56
2021/11/29 14:16:10;;;;;;;11.18;4.70;;;;;;;;;;5048756;28;20051;-57
2021/11/29 14:18:38;;;;;;;9.13;3.85;;;;;;;;;;5046990;28;20115;-55
2021/11/29 14:21:14;;;;;;;8.68;3.90;;;;;;;;;;5041358;28;20083;-57
2021/11/29 14:23:45;;;;;;;7.82;3.92;;;;;;;;;;5039299;28;20093;-57